sensor_id;sensor_type;location;lat;lon;timestamp;pressure;altitude;pressure_sealevel;temperature;humidity
75788;BME280;64406;50.024;14.492;2024-03-08T00:00:23;98388.56;;;1.09;81.79
75788;BME280;64406;50.024;14.492;2024-03-08T00:03:09;98385.84;;;1.23;81.94
75788;BME280;64406;50.024;14.492;2024-03-08T00:05:36;98388.44;;;1.29;81.06
75788;BME280;64406;50.024;14.492;2024-03-08T00:08:05;98385.06;;;1.16;81.76
75788;BME280;64406;50.024;14.492;2024-03-08T00:10:34;98384.47;;;1.14;82.28
75788;BME280;64406;50.024;14.492;2024-03-08T00:13:00;98380.31;;;1.24;81.27
75788;BME280;64406;50.024;14.492;2024-03-08T00:15:25;98377.91;;;1.16;81.36
75788;BME280;64406;50.024;14.492;2024-03-08T00:17:51;98369.09;;;1.22;80.89
75788;BME280;64406;50.024;14.492;2024-03-08T00:20:17;98377.97;;;1.09;81.86
75788;BME280;64406;50.024;14.492;2024-03-08T00:22:46;98383.22;;;1.16;81.79
75788;BME280;64406;50.024;14.492;2024-03-08T00:25:11;98381.00;;;1.13;81.73
75788;BME280;64406;50.024;14.492;2024-03-08T00:27:37;98374.44;;;1.16;81.56
75788;BME280;64406;50.024;14.492;2024-03-08T00:30:07;98371.66;;;1.04;81.92
75788;BME280;64406;50.024;14.492;2024-03-08T00:32:33;98380.97;;;1.20;81.28
75788;BME280;64406;50.024;14.492;2024-03-08T00:34:59;98380.16;;;1.19;81.79
75788;BME280;64406;50.024;14.492;2024-03-08T00:37:25;98374.00;;;1.19;82.11
75788;BME280;64406;50.024;14.492;2024-03-08T00:39:51;98362.19;;;1.21;81.18
75788;BME280;64406;50.024;14.492;2024-03-08T00:42:18;98367.84;;;1.25;81.25
75788;BME280;64406;50.024;14.492;2024-03-08T00:44:44;98370.13;;;1.21;81.11
75788;BME280;64406;50.024;14.492;2024-03-08T00:47:10;98377.69;;;1.18;81.43
75788;BME280;64406;50.024;14.492;2024-03-08T00:49:36;98371.22;;;1.14;81.17
75788;BME280;64406;50.024;14.492;2024-03-08T00:52:05;98365.25;;;1.18;81.30
75788;BME280;64406;50.024;14.492;2024-03-08T00:54:36;98361.22;;;1.09;81.26
75788;BME280;64406;50.024;14.492;2024-03-08T00:57:03;98359.66;;;1.01;81.73
75788;BME280;64406;50.024;14.492;2024-03-08T00:59:29;98352.34;;;0.97;82.10
75788;BME280;64406;50.024;14.492;2024-03-08T01:01:58;98351.97;;;0.93;82.20
75788;BME280;64406;50.024;14.492;2024-03-08T01:04:25;98360.44;;;1.08;81.92
75788;BME280;64406;50.024;14.492;2024-03-08T01:06:53;98348.53;;;0.86;82.85
75788;BME280;64406;50.024;14.492;2024-03-08T01:09:18;98338.88;;;0.92;82.33
75788;BME280;64406;50.024;14.492;2024-03-08T01:11:45;98350.31;;;0.92;82.96
75788;BME280;64406;50.024;14.492;2024-03-08T01:14:11;98343.19;;;0.93;82.62
75788;BME280;64406;50.024;14.492;2024-03-08T01:16:37;98346.00;;;0.98;82.46
75788;BME280;64406;50.024;14.492;2024-03-08T01:19:02;98348.50;;;0.93;82.98
75788;BME280;64406;50.024;14.492;2024-03-08T01:21:29;98350.50;;;0.97;82.45
75788;BME280;64406;50.024;14.492;2024-03-08T01:23:54;98340.91;;;0.96;82.64
75788;BME280;64406;50.024;14.492;2024-03-08T01:26:20;98347.66;;;0.92;83.24
75788;BME280;64406;50.024;14.492;2024-03-08T01:28:45;98341.69;;;1.03;82.41
75788;BME280;64406;50.024;14.492;2024-03-08T01:31:11;98342.13;;;1.00;82.13
75788;BME280;64406;50.024;14.492;2024-03-08T01:33:37;98339.38;;;1.14;81.75
75788;BME280;64406;50.024;14.492;2024-03-08T01:36:03;98338.63;;;1.06;82.07
75788;BME280;64406;50.024;14.492;2024-03-08T01:38:28;98330.47;;;1.01;82.59
75788;BME280;64406;50.024;14.492;2024-03-08T01:40:54;98339.84;;;1.04;82.85
75788;BME280;64406;50.024;14.492;2024-03-08T01:43:27;98332.69;;;1.04;83.02
75788;BME280;64406;50.024;14.492;2024-03-08T01:45:59;98337.09;;;1.17;82.02
75788;BME280;64406;50.024;14.492;2024-03-08T01:48:27;98330.66;;;1.06;82.74
75788;BME280;64406;50.024;14.492;2024-03-08T01:50:53;98326.75;;;1.09;82.34
75788;BME280;64406;50.024;14.492;2024-03-08T01:53:20;98319.44;;;1.04;82.58
75788;BME280;64406;50.024;14.492;2024-03-08T01:55:47;98331.41;;;1.14;82.47
75788;BME280;64406;50.024;14.492;2024-03-08T01:58:13;98326.94;;;1.14;82.55
75788;BME280;64406;50.024;14.492;2024-03-08T02:00:46;98323.13;;;1.28;82.33
75788;BME280;64406;50.024;14.492;2024-03-08T02:03:15;98325.97;;;1.33;82.29
75788;BME280;64406;50.024;14.492;2024-03-08T02:05:41;98302.31;;;1.25;82.23
75788;BME280;64406;50.024;14.492;2024-03-08T02:08:07;98313.56;;;1.27;82.38
75788;BME280;64406;50.024;14.492;2024-03-08T02:10:38;98314.59;;;1.26;82.44
75788;BME280;64406;50.024;14.492;2024-03-08T02:13:04;98307.50;;;1.20;82.09
75788;BME280;64406;50.024;14.492;2024-03-08T02:15:59;98316.75;;;1.36;82.69
75788;BME280;64406;50.024;14.492;2024-03-08T02:18:26;98312.25;;;1.36;82.35
75788;BME280;64406;50.024;14.492;2024-03-08T02:20:53;98311.94;;;1.26;82.79
75788;BME280;64406;50.024;14.492;2024-03-08T02:23:20;98309.66;;;1.30;82.72
75788;BME280;64406;50.024;14.492;2024-03-08T02:25:49;98306.19;;;1.29;82.63
75788;BME280;64406;50.024;14.492;2024-03-08T02:28:14;98306.56;;;1.33;82.88
75788;BME280;64406;50.024;14.492;2024-03-08T02:30:41;98297.03;;;1.25;83.06
75788;BME280;64406;50.024;14.492;2024-03-08T02:33:07;98300.66;;;1.31;82.82
75788;BME280;64406;50.024;14.492;2024-03-08T02:35:35;98297.03;;;1.25;82.94
75788;BME280;64406;50.024;14.492;2024-03-08T02:38:02;98304.72;;;1.33;83.04
75788;BME280;64406;50.024;14.492;2024-03-08T02:40:29;98299.56;;;1.39;82.41
75788;BME280;64406;50.024;14.492;2024-03-08T02:42:55;98292.91;;;1.29;82.78
75788;BME280;64406;50.024;14.492;2024-03-08T02:45:21;98302.31;;;1.25;82.82
75788;BME280;64406;50.024;14.492;2024-03-08T02:47:46;98302.28;;;1.32;82.89
75788;BME280;64406;50.024;14.492;2024-03-08T02:50:12;98295.47;;;1.43;82.36
75788;BME280;64406;50.024;14.492;2024-03-08T02:52:44;98293.78;;;1.48;82.18
75788;BME280;64406;50.024;14.492;2024-03-08T02:55:11;98292.38;;;1.46;82.31
75788;BME280;64406;50.024;14.492;2024-03-08T02:57:40;98289.84;;;1.51;82.19
75788;BME280;64406;50.024;14.492;2024-03-08T03:00:07;98289.50;;;1.47;82.84
75788;BME280;64406;50.024;14.492;2024-03-08T03:02:34;98289.91;;;1.44;83.01
75788;BME280;64406;50.024;14.492;2024-03-08T03:05:00;98292.16;;;1.47;82.28
75788;BME280;64406;50.024;14.492;2024-03-08T03:07:30;98282.09;;;1.74;81.61
75788;BME280;64406;50.024;14.492;2024-03-08T03:09:56;98269.97;;;1.60;81.35
75788;BME280;64406;50.024;14.492;2024-03-08T03:12:21;98269.31;;;1.64;81.65
75788;BME280;64406;50.024;14.492;2024-03-08T03:14:48;98277.84;;;1.48;82.10
75788;BME280;64406;50.024;14.492;2024-03-08T03:17:13;98276.47;;;1.46;83.05
75788;BME280;64406;50.024;14.492;2024-03-08T03:19:42;98273.22;;;1.62;82.06
75788;BME280;64406;50.024;14.492;2024-03-08T03:22:08;98268.84;;;1.49;82.66
75788;BME280;64406;50.024;14.492;2024-03-08T03:24:36;98276.59;;;1.51;82.44
75788;BME280;64406;50.024;14.492;2024-03-08T03:27:06;98254.59;;;1.44;82.91
75788;BME280;64406;50.024;14.492;2024-03-08T03:29:37;98264.00;;;1.46;82.80
75788;BME280;64406;50.024;14.492;2024-03-08T03:32:03;98263.84;;;1.41;82.86
75788;BME280;64406;50.024;14.492;2024-03-08T03:34:29;98262.09;;;1.28;83.37
75788;BME280;64406;50.024;14.492;2024-03-08T03:36:55;98260.16;;;1.17;84.90
75788;BME280;64406;50.024;14.492;2024-03-08T03:39:22;98260.66;;;1.07;85.06
75788;BME280;64406;50.024;14.492;2024-03-08T03:41:48;98262.47;;;0.82;85.47
75788;BME280;64406;50.024;14.492;2024-03-08T03:44:18;98259.47;;;0.72;86.57
75788;BME280;64406;50.024;14.492;2024-03-08T03:46:43;98268.28;;;0.66;86.95
75788;BME280;64406;50.024;14.492;2024-03-08T03:49:09;98257.84;;;0.39;87.89
75788;BME280;64406;50.024;14.492;2024-03-08T03:51:35;98261.56;;;0.32;88.86
75788;BME280;64406;50.024;14.492;2024-03-08T03:54:00;98258.16;;;0.18;89.33
75788;BME280;64406;50.024;14.492;2024-03-08T03:56:29;98253.34;;;0.08;90.18
75788;BME280;64406;50.024;14.492;2024-03-08T03:58:56;98243.19;;;-0.08;90.66
75788;BME280;64406;50.024;14.492;2024-03-08T04:01:22;98255.88;;;-0.23;91.93
75788;BME280;64406;50.024;14.492;2024-03-08T04:03:47;98244.75;;;-0.45;93.07
75788;BME280;64406;50.024;14.492;2024-03-08T04:06:13;98252.25;;;-0.36;92.89
75788;BME280;64406;50.024;14.492;2024-03-08T04:08:40;98254.09;;;-0.36;92.68
75788;BME280;64406;50.024;14.492;2024-03-08T04:11:07;98249.59;;;-0.36;93.18
75788;BME280;64406;50.024;14.492;2024-03-08T04:13:34;98254.53;;;-0.39;93.85
75788;BME280;64406;50.024;14.492;2024-03-08T04:15:59;98255.75;;;-0.55;94.79
75788;BME280;64406;50.024;14.492;2024-03-08T04:18:25;98248.22;;;-0.51;95.09
75788;BME280;64406;50.024;14.492;2024-03-08T04:20:52;98249.44;;;-0.54;94.98
75788;BME280;64406;50.024;14.492;2024-03-08T04:23:18;98246.59;;;-0.46;95.48
75788;BME280;64406;50.024;14.492;2024-03-08T04:25:45;98245.56;;;-0.45;95.18
75788;BME280;64406;50.024;14.492;2024-03-08T04:28:10;98250.66;;;-0.43;95.01
75788;BME280;64406;50.024;14.492;2024-03-08T04:30:38;98248.81;;;-0.43;95.39
75788;BME280;64406;50.024;14.492;2024-03-08T04:33:04;98246.59;;;-0.46;95.99
75788;BME280;64406;50.024;14.492;2024-03-08T04:35:29;98246.16;;;-0.36;95.67
75788;BME280;64406;50.024;14.492;2024-03-08T04:37:56;98239.84;;;-0.35;95.54
75788;BME280;64406;50.024;14.492;2024-03-08T04:40:23;98247.13;;;-0.24;94.91
75788;BME280;64406;50.024;14.492;2024-03-08T04:42:49;98243.03;;;-0.20;94.06
75788;BME280;64406;50.024;14.492;2024-03-08T04:45:16;98241.47;;;-0.34;94.86
75788;BME280;64406;50.024;14.492;2024-03-08T04:47:42;98243.72;;;-0.38;95.15
75788;BME280;64406;50.024;14.492;2024-03-08T04:50:08;98249.84;;;-0.44;95.74
75788;BME280;64406;50.024;14.492;2024-03-08T04:52:34;98241.09;;;-0.51;95.54
75788;BME280;64406;50.024;14.492;2024-03-08T04:55:01;98240.28;;;-0.45;96.26
75788;BME280;64406;50.024;14.492;2024-03-08T04:57:29;98237.81;;;-0.46;95.98
75788;BME280;64406;50.024;14.492;2024-03-08T04:59:55;98238.44;;;-0.44;95.89
75788;BME280;64406;50.024;14.492;2024-03-08T05:02:21;98232.16;;;-0.50;96.72
75788;BME280;64406;50.024;14.492;2024-03-08T05:04:48;98234.22;;;-0.59;96.96
75788;BME280;64406;50.024;14.492;2024-03-08T05:07:14;98236.66;;;-0.70;97.75
75788;BME280;64406;50.024;14.492;2024-03-08T05:09:39;98241.16;;;-0.77;97.87
75788;BME280;64406;50.024;14.492;2024-03-08T05:12:06;98235.06;;;-0.78;98.79
75788;BME280;64406;50.024;14.492;2024-03-08T05:14:33;98239.94;;;-0.82;99.12
75788;BME280;64406;50.024;14.492;2024-03-08T05:17:00;98241.16;;;-0.84;99.53
75788;BME280;64406;50.024;14.492;2024-03-08T05:19:26;98229.78;;;-0.85;99.33
75788;BME280;64406;50.024;14.492;2024-03-08T05:21:52;98235.06;;;-0.85;99.46
75788;BME280;64406;50.024;14.492;2024-03-08T05:24:18;98236.50;;;-1.02;100.00
75788;BME280;64406;50.024;14.492;2024-03-08T05:26:45;98243.00;;;-0.91;100.00
75788;BME280;64406;50.024;14.492;2024-03-08T05:29:11;98244.03;;;-1.05;100.00
75788;BME280;64406;50.024;14.492;2024-03-08T05:31:47;98246.47;;;-1.17;100.00
75788;BME280;64406;50.024;14.492;2024-03-08T05:34:13;98244.41;;;-1.08;100.00
75788;BME280;64406;50.024;14.492;2024-03-08T05:36:40;98250.13;;;-1.12;100.00
75788;BME280;64406;50.024;14.492;2024-03-08T05:39:06;98240.75;;;-1.07;100.00
75788;BME280;64406;50.024;14.492;2024-03-08T05:41:32;98248.47;;;-1.06;100.00
75788;BME280;64406;50.024;14.492;2024-03-08T05:43:58;98249.31;;;-0.99;100.00
75788;BME280;64406;50.024;14.492;2024-03-08T05:46:23;98244.19;;;-0.74;100.00
75788;BME280;64406;50.024;14.492;2024-03-08T05:48:49;98242.56;;;-0.75;100.00
75788;BME280;64406;50.024;14.492;2024-03-08T05:51:15;98236.22;;;-0.61;99.94
75788;BME280;64406;50.024;14.492;2024-03-08T05:53:40;98248.25;;;-0.58;99.32
75788;BME280;64406;50.024;14.492;2024-03-08T05:56:06;98239.91;;;-0.62;99.86
75788;BME280;64406;50.024;14.492;2024-03-08T05:58:31;98239.31;;;-0.70;99.92
75788;BME280;64406;50.024;14.492;2024-03-08T06:00:57;98238.31;;;-0.76;99.61
75788;BME280;64406;50.024;14.492;2024-03-08T06:03:23;98247.84;;;-0.68;99.85
75788;BME280;64406;50.024;14.492;2024-03-08T06:05:49;98245.81;;;-0.79;100.00
75788;BME280;64406;50.024;14.492;2024-03-08T06:08:15;98241.75;;;-0.75;100.00
75788;BME280;64406;50.024;14.492;2024-03-08T06:10:41;98238.72;;;-0.72;99.85
75788;BME280;64406;50.024;14.492;2024-03-08T06:13:06;98255.78;;;-0.75;100.00
75788;BME280;64406;50.024;14.492;2024-03-08T06:15:32;98248.28;;;-0.71;100.00
75788;BME280;64406;50.024;14.492;2024-03-08T06:17:58;98240.13;;;-0.70;99.96
75788;BME280;64406;50.024;14.492;2024-03-08T06:20:23;98247.25;;;-0.64;100.00
75788;BME280;64406;50.024;14.492;2024-03-08T06:22:52;98247.00;;;-0.56;99.62
75788;BME280;64406;50.024;14.492;2024-03-08T06:25:18;98239.50;;;-0.52;99.51
75788;BME280;64406;50.024;14.492;2024-03-08T06:27:43;98246.97;;;-0.42;99.37
75788;BME280;64406;50.024;14.492;2024-03-08T06:30:10;98240.88;;;-0.43;98.70
75788;BME280;64406;50.024;14.492;2024-03-08T06:32:36;98248.78;;;-0.36;99.17
75788;BME280;64406;50.024;14.492;2024-03-08T06:35:03;98246.34;;;-0.31;98.77
75788;BME280;64406;50.024;14.492;2024-03-08T06:37:34;98242.88;;;-0.25;98.14
75788;BME280;64406;50.024;14.492;2024-03-08T06:40:01;98236.38;;;-0.36;98.23
75788;BME280;64406;50.024;14.492;2024-03-08T06:42:27;98243.69;;;-0.31;99.16
75788;BME280;64406;50.024;14.492;2024-03-08T06:44:54;98240.84;;;-0.30;98.79
75788;BME280;64406;50.024;14.492;2024-03-08T06:47:21;98235.34;;;0.55;99.45
75788;BME280;64406;50.024;14.492;2024-03-08T06:49:53;98238.00;;;0.55;94.07
75788;BME280;64406;50.024;14.492;2024-03-08T06:52:18;98232.97;;;0.72;94.38
75788;BME280;64406;50.024;14.492;2024-03-08T06:54:44;98237.50;;;0.65;92.71
75788;BME280;64406;50.024;14.492;2024-03-08T06:57:10;98242.66;;;0.85;91.39
75788;BME280;64406;50.024;14.492;2024-03-08T06:59:36;98237.00;;;0.81;91.20
75788;BME280;64406;50.024;14.492;2024-03-08T07:02:06;98237.72;;;0.63;91.38
75788;BME280;64406;50.024;14.492;2024-03-08T07:04:50;98242.44;;;0.61;92.29
75788;BME280;64406;50.024;14.492;2024-03-08T07:07:22;98233.88;;;0.59;91.20
75788;BME280;64406;50.024;14.492;2024-03-08T07:09:48;98234.06;;;0.64;90.61
75788;BME280;64406;50.024;14.492;2024-03-08T07:12:14;98232.44;;;0.63;91.49
75788;BME280;64406;50.024;14.492;2024-03-08T07:14:40;98233.47;;;0.62;90.99
75788;BME280;64406;50.024;14.492;2024-03-08T07:17:07;98231.25;;;0.84;90.63
75788;BME280;64406;50.024;14.492;2024-03-08T07:19:34;98230.56;;;0.95;89.31
75788;BME280;64406;50.024;14.492;2024-03-08T07:22:00;98225.38;;;1.25;87.13
75788;BME280;64406;50.024;14.492;2024-03-08T07:24:29;98224.56;;;1.25;86.92
75788;BME280;64406;50.024;14.492;2024-03-08T07:27:04;98216.78;;;1.30;85.65
75788;BME280;64406;50.024;14.492;2024-03-08T07:29:33;98221.97;;;1.61;87.57
75788;BME280;64406;50.024;14.492;2024-03-08T07:31:59;98219.41;;;2.22;86.49
75788;BME280;64406;50.024;14.492;2024-03-08T07:34:43;98214.75;;;3.47;82.72
75788;BME280;64406;50.024;14.492;2024-03-08T07:37:09;98210.78;;;3.62;80.28
75788;BME280;64406;50.024;14.492;2024-03-08T07:39:39;98222.03;;;3.28;76.21
75788;BME280;64406;50.024;14.492;2024-03-08T07:42:05;98208.25;;;2.96;77.10
75788;BME280;64406;50.024;14.492;2024-03-08T07:44:30;98219.25;;;2.47;78.27
75788;BME280;64406;50.024;14.492;2024-03-08T07:46:59;98211.88;;;2.18;80.62
75788;BME280;64406;50.024;14.492;2024-03-08T07:49:25;98206.19;;;3.45;75.77
75788;BME280;64406;50.024;14.492;2024-03-08T07:51:50;98212.38;;;3.86;73.62
75788;BME280;64406;50.024;14.492;2024-03-08T07:54:17;98196.84;;;3.31;75.08
75788;BME280;64406;50.024;14.492;2024-03-08T07:56:43;98207.34;;;2.91;76.52
75788;BME280;64406;50.024;14.492;2024-03-08T07:59:08;98203.75;;;2.85;76.31
75788;BME280;64406;50.024;14.492;2024-03-08T08:01:36;98204.88;;;2.66;76.94
75788;BME280;64406;50.024;14.492;2024-03-08T08:04:02;98202.56;;;2.69;76.02
75788;BME280;64406;50.024;14.492;2024-03-08T08:06:28;98203.34;;;2.70;74.60
75788;BME280;64406;50.024;14.492;2024-03-08T08:08:57;98197.34;;;2.63;75.14
75788;BME280;64406;50.024;14.492;2024-03-08T08:11:22;98197.63;;;2.43;75.98
75788;BME280;64406;50.024;14.492;2024-03-08T08:13:48;98202.66;;;2.51;76.18
75788;BME280;64406;50.024;14.492;2024-03-08T08:16:14;98207.13;;;2.51;76.85
75788;BME280;64406;50.024;14.492;2024-03-08T08:18:40;98194.44;;;2.53;76.76
75788;BME280;64406;50.024;14.492;2024-03-08T08:21:06;98186.13;;;2.61;75.99
75788;BME280;64406;50.024;14.492;2024-03-08T08:23:32;98192.72;;;2.70;75.47
75788;BME280;64406;50.024;14.492;2024-03-08T08:25:58;98190.06;;;2.70;75.61
75788;BME280;64406;50.024;14.492;2024-03-08T08:28:23;98187.91;;;2.79;75.12
75788;BME280;64406;50.024;14.492;2024-03-08T08:30:49;98184.19;;;2.80;75.29
75788;BME280;64406;50.024;14.492;2024-03-08T08:33:16;98185.56;;;2.82;75.52
75788;BME280;64406;50.024;14.492;2024-03-08T08:35:42;98188.13;;;3.00;75.25
75788;BME280;64406;50.024;14.492;2024-03-08T08:38:08;98187.56;;;2.98;75.32
75788;BME280;64406;50.024;14.492;2024-03-08T08:40:34;98183.97;;;2.93;76.10
75788;BME280;64406;50.024;14.492;2024-03-08T08:43:02;98174.25;;;3.10;75.80
75788;BME280;64406;50.024;14.492;2024-03-08T08:45:30;98168.47;;;3.25;74.53
75788;BME280;64406;50.024;14.492;2024-03-08T08:47:56;98172.75;;;3.14;75.03
75788;BME280;64406;50.024;14.492;2024-03-08T08:50:24;98174.25;;;3.10;75.36
75788;BME280;64406;50.024;14.492;2024-03-08T08:52:50;98172.81;;;3.54;80.36
75788;BME280;64406;50.024;14.492;2024-03-08T08:55:16;98169.25;;;3.89;77.62
75788;BME280;64406;50.024;14.492;2024-03-08T08:57:47;98169.09;;;4.36;77.05
75788;BME280;64406;50.024;14.492;2024-03-08T09:00:13;98172.75;;;4.18;72.20
75788;BME280;64406;50.024;14.492;2024-03-08T09:02:42;98162.91;;;3.90;72.36
75788;BME280;64406;50.024;14.492;2024-03-08T09:05:08;98167.56;;;3.83;72.52
75788;BME280;64406;50.024;14.492;2024-03-08T09:07:34;98169.88;;;3.79;73.34
75788;BME280;64406;50.024;14.492;2024-03-08T09:10:00;98165.47;;;3.85;73.52
75788;BME280;64406;50.024;14.492;2024-03-08T09:12:26;98166.16;;;3.80;73.98
75788;BME280;64406;50.024;14.492;2024-03-08T09:14:52;98156.84;;;3.95;73.66
75788;BME280;64406;50.024;14.492;2024-03-08T09:17:18;98163.28;;;4.11;72.80
75788;BME280;64406;50.024;14.492;2024-03-08T09:19:48;98166.50;;;4.41;72.36
75788;BME280;64406;50.024;14.492;2024-03-08T09:22:14;98154.72;;;4.54;71.65
75788;BME280;64406;50.024;14.492;2024-03-08T09:24:40;98149.72;;;4.91;68.86
75788;BME280;64406;50.024;14.492;2024-03-08T09:27:06;98156.16;;;4.95;67.95
75788;BME280;64406;50.024;14.492;2024-03-08T09:29:31;98154.56;;;4.77;67.13
75788;BME280;64406;50.024;14.492;2024-03-08T09:31:57;98144.31;;;4.69;67.07
75788;BME280;64406;50.024;14.492;2024-03-08T09:34:22;98144.72;;;4.78;66.36
75788;BME280;64406;50.024;14.492;2024-03-08T09:36:49;98144.38;;;4.74;67.03
75788;BME280;64406;50.024;14.492;2024-03-08T09:39:17;98136.19;;;4.81;67.51
75788;BME280;64406;50.024;14.492;2024-03-08T09:41:47;98138.94;;;4.86;66.67
75788;BME280;64406;50.024;14.492;2024-03-08T09:44:15;98133.28;;;4.99;66.99
75788;BME280;64406;50.024;14.492;2024-03-08T09:46:45;98132.47;;;5.15;66.17
75788;BME280;64406;50.024;14.492;2024-03-08T09:49:13;98129.81;;;5.37;65.76
75788;BME280;64406;50.024;14.492;2024-03-08T09:51:39;98126.41;;;5.42;65.77
75788;BME280;64406;50.024;14.492;2024-03-08T09:54:06;98128.75;;;5.60;64.77
75788;BME280;64406;50.024;14.492;2024-03-08T09:56:35;98131.75;;;5.64;65.03
75788;BME280;64406;50.024;14.492;2024-03-08T09:59:02;98128.81;;;5.65;64.12
75788;BME280;64406;50.024;14.492;2024-03-08T10:01:37;98127.09;;;5.76;62.90
75788;BME280;64406;50.024;14.492;2024-03-08T10:04:04;98117.34;;;6.14;61.35
75788;BME280;64406;50.024;14.492;2024-03-08T10:06:30;98119.34;;;6.56;60.63
75788;BME280;64406;50.024;14.492;2024-03-08T10:08:57;98112.13;;;6.56;60.45
75788;BME280;64406;50.024;14.492;2024-03-08T10:11:24;98115.19;;;6.11;61.44
75788;BME280;64406;50.024;14.492;2024-03-08T10:13:50;98115.84;;;5.96;62.22
75788;BME280;64406;50.024;14.492;2024-03-08T10:16:16;98110.19;;;5.92;63.13
75788;BME280;64406;50.024;14.492;2024-03-08T10:18:45;98113.44;;;6.21;62.80
75788;BME280;64406;50.024;14.492;2024-03-08T10:21:12;98111.97;;;6.68;61.79
75788;BME280;64406;50.024;14.492;2024-03-08T10:23:39;98105.13;;;6.87;60.67
75788;BME280;64406;50.024;14.492;2024-03-08T10:26:17;98103.91;;;7.05;60.03
75788;BME280;64406;50.024;14.492;2024-03-08T10:28:47;98106.41;;;7.22;59.38
75788;BME280;64406;50.024;14.492;2024-03-08T10:31:16;98105.97;;;7.40;58.45
75788;BME280;64406;50.024;14.492;2024-03-08T10:33:42;98104.69;;;7.48;58.05
75788;BME280;64406;50.024;14.492;2024-03-08T10:36:10;98101.53;;;7.08;59.83
75788;BME280;64406;50.024;14.492;2024-03-08T10:38:41;98100.19;;;7.11;59.78
75788;BME280;64406;50.024;14.492;2024-03-08T10:41:08;98097.47;;;7.01;59.95
75788;BME280;64406;50.024;14.492;2024-03-08T10:43:56;98096.09;;;6.98;59.49
75788;BME280;64406;50.024;14.492;2024-03-08T10:46:30;98103.97;;;6.78;60.03
75788;BME280;64406;50.024;14.492;2024-03-08T10:48:57;98102.91;;;6.79;60.22
75788;BME280;64406;50.024;14.492;2024-03-08T10:51:27;98100.69;;;7.03;59.30
75788;BME280;64406;50.024;14.492;2024-03-08T10:53:57;98087.47;;;7.39;59.81
75788;BME280;64406;50.024;14.492;2024-03-08T10:56:23;98090.00;;;7.71;58.40
75788;BME280;64406;50.024;14.492;2024-03-08T10:58:48;98084.41;;;7.82;58.64
75788;BME280;64406;50.024;14.492;2024-03-08T11:01:15;98075.69;;;7.45;59.13
75788;BME280;64406;50.024;14.492;2024-03-08T11:06:30;98075.25;;;7.05;60.42
75788;BME280;64406;50.024;14.492;2024-03-08T11:08:56;98067.88;;;6.80;60.88
75788;BME280;64406;50.024;14.492;2024-03-08T11:11:25;98063.75;;;7.10;60.63
75788;BME280;64406;50.024;14.492;2024-03-08T11:14:01;98060.19;;;7.47;60.72
75788;BME280;64406;50.024;14.492;2024-03-08T11:19:23;98056.34;;;8.26;57.27
75788;BME280;64406;50.024;14.492;2024-03-08T11:22:00;98055.25;;;8.27;57.00
75788;BME280;64406;50.024;14.492;2024-03-08T11:24:25;98049.34;;;8.09;57.11
75788;BME280;64406;50.024;14.492;2024-03-08T11:26:59;98045.91;;;8.60;56.42
75788;BME280;64406;50.024;14.492;2024-03-08T11:32:12;98038.88;;;8.79;54.58
75788;BME280;64406;50.024;14.492;2024-03-08T11:34:41;98037.53;;;8.77;54.85
75788;BME280;64406;50.024;14.492;2024-03-08T11:39:49;98033.56;;;8.54;55.48
75788;BME280;64406;50.024;14.492;2024-03-08T11:42:15;98034.88;;;8.21;56.41
75788;BME280;64406;50.024;14.492;2024-03-08T11:44:46;98026.28;;;8.13;57.13
75788;BME280;64406;50.024;14.492;2024-03-08T11:47:13;98033.00;;;8.41;55.87
75788;BME280;64406;50.024;14.492;2024-03-08T11:49:40;98019.84;;;8.60;56.19
75788;BME280;64406;50.024;14.492;2024-03-08T11:52:13;98017.13;;;8.76;55.61
75788;BME280;64406;50.024;14.492;2024-03-08T11:54:42;98010.16;;;8.80;55.03
75788;BME280;64406;50.024;14.492;2024-03-08T11:57:09;98011.47;;;8.82;54.52
75788;BME280;64406;50.024;14.492;2024-03-08T11:59:37;98002.84;;;9.01;53.79
75788;BME280;64406;50.024;14.492;2024-03-08T12:02:04;98017.91;;;8.91;54.20
75788;BME280;64406;50.024;14.492;2024-03-08T12:04:30;98008.22;;;8.95;53.35
75788;BME280;64406;50.024;14.492;2024-03-08T12:07:12;98007.84;;;9.27;53.16
75788;BME280;64406;50.024;14.492;2024-03-08T12:09:43;98004.84;;;9.39;53.54
75788;BME280;64406;50.024;14.492;2024-03-08T12:12:13;98011.13;;;9.09;53.44
75788;BME280;64406;50.024;14.492;2024-03-08T12:14:43;98007.63;;;9.14;53.76
75788;BME280;64406;50.024;14.492;2024-03-08T12:17:09;98004.66;;;9.15;53.96
75788;BME280;64406;50.024;14.492;2024-03-08T12:19:35;98004.72;;;9.05;53.48
75788;BME280;64406;50.024;14.492;2024-03-08T12:22:09;98007.91;;;9.12;54.18
75788;BME280;64406;50.024;14.492;2024-03-08T12:24:35;97996.28;;;9.32;53.66
75788;BME280;64406;50.024;14.492;2024-03-08T12:27:17;97999.28;;;9.10;54.44
75788;BME280;64406;50.024;14.492;2024-03-08T12:29:43;98001.09;;;9.30;52.68
75788;BME280;64406;50.024;14.492;2024-03-08T12:32:09;97995.38;;;9.52;52.68
75788;BME280;64406;50.024;14.492;2024-03-08T12:34:36;98003.16;;;9.48;53.67
75788;BME280;64406;50.024;14.492;2024-03-08T12:37:02;97999.47;;;9.39;53.58
75788;BME280;64406;50.024;14.492;2024-03-08T12:39:29;97992.44;;;9.43;53.51
75788;BME280;64406;50.024;14.492;2024-03-08T12:41:56;97989.88;;;9.18;53.83
75788;BME280;64406;50.024;14.492;2024-03-08T12:44:25;98002.75;;;9.21;54.19
75788;BME280;64406;50.024;14.492;2024-03-08T12:46:51;97991.88;;;8.82;54.20
75788;BME280;64406;50.024;14.492;2024-03-08T12:49:19;97988.44;;;8.61;55.66
75788;BME280;64406;50.024;14.492;2024-03-08T12:51:48;97985.75;;;8.66;55.20
75788;BME280;64406;50.024;14.492;2024-03-08T12:54:13;97990.50;;;8.89;54.02
75788;BME280;64406;50.024;14.492;2024-03-08T12:56:39;97979.25;;;8.77;54.89
75788;BME280;64406;50.024;14.492;2024-03-08T12:59:06;97982.41;;;9.05;54.26
75788;BME280;64406;50.024;14.492;2024-03-08T13:01:38;97971.66;;;9.05;54.75
75788;BME280;64406;50.024;14.492;2024-03-08T13:04:05;97978.84;;;9.19;54.24
75788;BME280;64406;50.024;14.492;2024-03-08T13:06:32;97970.78;;;9.69;52.93
75788;BME280;64406;50.024;14.492;2024-03-08T13:08:58;97966.44;;;9.78;52.80